createdAt,value
2022-09-11T00:00:38.013Z,20.75
2022-09-11T00:03:28.230Z,22.63
2022-09-11T00:05:58.475Z,21.63
2022-09-11T00:08:37.257Z,23.20
2022-09-11T00:11:10.208Z,22.17
2022-09-11T00:13:43.540Z,23.65
2022-09-11T00:16:24.051Z,23.80
2022-09-11T00:19:02.116Z,23.23
2022-09-11T00:21:36.486Z,20.70
2022-09-11T00:24:10.334Z,21.60
2022-09-11T00:26:41.215Z,21.65
2022-09-11T00:29:11.874Z,20.70
2022-09-11T00:31:42.423Z,22.92
2022-09-11T00:34:15.259Z,23.10
2022-09-11T00:36:48.431Z,23.55
2022-09-11T00:39:21.563Z,23.05
2022-09-11T00:41:55.259Z,21.33
2022-09-11T00:47:58.502Z,23.58
2022-09-11T00:50:34.672Z,26.30
2022-09-11T00:53:12.640Z,26.48
2022-09-11T00:55:50.749Z,24.88
2022-09-11T00:58:27.023Z,27.55
2022-09-11T01:00:59.440Z,27.52
2022-09-11T01:03:33.096Z,28.90
2022-09-11T01:06:07.299Z,29.10
2022-09-11T01:08:38.489Z,31.70
2022-09-11T01:11:34.312Z,30.05
2022-09-11T01:14:17.875Z,32.65
2022-09-11T01:16:59.875Z,33.15
2022-09-11T01:19:54.012Z,35.38
2022-09-11T01:22:57.388Z,34.75
2022-09-11T01:25:40.996Z,35.60
2022-09-11T01:28:21.315Z,33.50
2022-09-11T01:30:59.624Z,34.13
2022-09-11T01:33:41.388Z,36.95
2022-09-11T01:36:20.651Z,36.33
2022-09-11T01:39:00.207Z,37.17
2022-09-11T01:41:35.324Z,40.65
2022-09-11T01:44:13.883Z,39.55
2022-09-11T01:46:49.965Z,42.33
2022-09-11T01:49:32.548Z,42.42
2022-09-11T01:52:09.214Z,40.88
2022-09-11T01:54:47.240Z,48.67
2022-09-11T01:57:28.179Z,44.15
2022-09-11T02:00:16.121Z,43.50
2022-09-11T02:02:56.247Z,43.25
2022-09-11T02:05:31.799Z,40.17
2022-09-11T02:08:07.548Z,44.55
2022-09-11T02:10:52.077Z,44.47
2022-09-11T02:13:33.715Z,46.17
2022-09-11T02:16:16.831Z,46.05
2022-09-11T02:19:00.911Z,46.30
2022-09-11T02:21:32.407Z,46.40
2022-09-11T02:24:04.106Z,47.10
2022-09-11T02:26:41.120Z,41.42
2022-09-11T02:29:15.690Z,46.25
2022-09-11T02:31:50.642Z,46.30
2022-09-11T02:34:28.531Z,45.78
2022-09-11T02:37:25.135Z,45.22
2022-09-11T02:40:21.798Z,45.03
2022-09-11T02:43:20.877Z,46.53
2022-09-11T02:46:05.559Z,48.67
2022-09-11T02:49:03.630Z,47.58
2022-09-11T02:51:51.188Z,49.92
2022-09-11T02:54:35.948Z,48.83
2022-09-11T02:57:19.447Z,48.83
2022-09-11T03:00:00.313Z,47.67
2022-09-11T03:02:37.496Z,49.28
2022-09-11T03:05:19.514Z,48.92
2022-09-11T03:07:49.692Z,46.65
2022-09-11T03:10:19.991Z,48.03
2022-09-11T03:12:50.763Z,48.63
2022-09-11T03:15:23.690Z,50.47
2022-09-11T03:17:53.770Z,47.35
2022-09-11T03:20:28.860Z,42.63
2022-09-11T03:22:58.970Z,44.65
2022-09-11T03:25:29.971Z,46.10
2022-09-11T03:28:00.283Z,49.88
2022-09-11T03:30:33.761Z,47.33
2022-09-11T03:33:06.574Z,48.05
2022-09-11T03:35:39.361Z,45.97
2022-09-11T03:38:12.259Z,46.72
2022-09-11T03:40:47.334Z,48.75
2022-09-11T03:43:18.353Z,44.55
2022-09-11T03:45:51.896Z,44.83
2022-09-11T03:48:22.427Z,46.72
2022-09-11T03:50:55.422Z,49.70
2022-09-11T03:53:28.031Z,47.92
2022-09-11T03:55:58.536Z,44.55
2022-09-11T03:58:28.764Z,49.58
2022-09-11T04:00:58.927Z,46.85
2022-09-11T04:03:31.442Z,52.55
2022-09-11T04:06:08.735Z,52.28
2022-09-11T04:08:38.865Z,46.47
2022-09-11T04:11:09.748Z,48.05
2022-09-11T04:13:44.052Z,47.75
2022-09-11T04:16:16.996Z,46.88
2022-09-11T04:18:49.496Z,47.33
2022-09-11T04:21:22.192Z,48.22
2022-09-11T04:23:57.958Z,48.28
2022-09-11T04:26:30.743Z,47.45
2022-09-11T04:29:02.142Z,50.05
2022-09-11T04:31:32.338Z,44.50
2022-09-11T04:34:02.521Z,47.03
2022-09-11T04:36:38.379Z,48.88
2022-09-11T04:39:11.326Z,46.47
2022-09-11T04:41:46.361Z,49.22
2022-09-11T04:44:17.059Z,51.28
2022-09-11T04:46:48.048Z,50.50
2022-09-11T04:49:18.637Z,48.85
2022-09-11T04:51:51.396Z,46.95
2022-09-11T04:54:23.933Z,47.63
2022-09-11T04:56:54.760Z,46.92
2022-09-11T04:59:26.468Z,47.67
2022-09-11T05:01:57.288Z,45.70
2022-09-11T05:04:27.418Z,47.13
2022-09-11T05:07:00.351Z,47.25
2022-09-11T05:09:30.804Z,44.20
2022-09-11T05:12:02.273Z,43.50
2022-09-11T05:14:32.813Z,39.13
2022-09-11T05:17:03.147Z,42.58
2022-09-11T05:19:33.348Z,47.95
2022-09-11T05:22:06.188Z,44.55
2022-09-11T05:24:36.348Z,47.05
2022-09-11T05:27:07.495Z,49.47
2022-09-11T05:29:39.232Z,50.00
2022-09-11T05:32:09.328Z,48.22
2022-09-11T05:34:40.356Z,51.20
2022-09-11T05:37:13.043Z,49.00
2022-09-11T05:39:43.246Z,46.85
2022-09-11T05:42:13.384Z,47.15
2022-09-11T05:44:43.631Z,46.58
2022-09-11T05:47:14.360Z,42.45
2022-09-11T05:49:44.431Z,43.78
2022-09-11T05:52:17.104Z,39.30
2022-09-11T05:54:47.193Z,39.97
2022-09-11T05:57:17.323Z,41.53
2022-09-11T05:59:47.396Z,37.38
2022-09-11T06:02:20.573Z,36.15
2022-09-11T06:04:50.717Z,34.75
2022-09-11T06:07:23.365Z,38.15
2022-09-11T06:09:53.457Z,37.38
2022-09-11T06:12:23.574Z,40.45
2022-09-11T06:14:53.615Z,40.20
2022-09-11T06:17:24.328Z,38.83
2022-09-11T06:19:54.536Z,35.92
2022-09-11T06:22:33.626Z,35.40
2022-09-11T06:25:03.652Z,37.05
2022-09-11T06:27:33.824Z,36.03
2022-09-11T06:30:03.907Z,36.47
2022-09-11T06:32:36.799Z,40.78
2022-09-11T06:35:07.367Z,40.03
2022-09-11T06:37:45.399Z,41.50
2022-09-11T06:40:18.395Z,36.85
2022-09-11T06:42:51.317Z,34.67
2022-09-11T06:45:24.811Z,41.75
2022-09-11T06:47:57.659Z,42.28
2022-09-11T06:50:32.892Z,37.47
2022-09-11T06:53:07.764Z,37.40
2022-09-11T06:55:38.147Z,35.97
2022-09-11T06:58:08.542Z,39.67
2022-09-11T07:00:39.466Z,38.30
2022-09-11T07:03:12.517Z,41.00
2022-09-11T07:05:48.776Z,39.20
2022-09-11T07:08:25.126Z,38.00
2022-09-11T07:10:55.370Z,38.22
2022-09-11T07:13:26.431Z,39.20
2022-09-11T07:16:03.502Z,40.35
2022-09-11T07:18:45.329Z,41.50
2022-09-11T07:21:21.978Z,37.30
2022-09-11T07:23:57.183Z,37.15
2022-09-11T07:26:30.613Z,39.80
2022-09-11T07:29:02.165Z,38.38
2022-09-11T07:31:35.524Z,37.13
2022-09-11T07:34:06.391Z,36.53
2022-09-11T07:36:38.174Z,35.45
2022-09-11T07:39:10.996Z,38.17
2022-09-11T07:41:46.774Z,40.95
2022-09-11T07:44:18.672Z,46.60
2022-09-11T07:46:52.273Z,45.47
2022-09-11T07:49:22.457Z,42.53
2022-09-11T07:51:52.580Z,46.42
2022-09-11T07:54:31.111Z,46.38
2022-09-11T07:57:01.506Z,42.60
2022-09-11T07:59:34.767Z,41.35
2022-09-11T08:02:08.194Z,32.25
2022-09-11T08:04:40.699Z,39.22
2022-09-11T08:07:10.742Z,42.60
2022-09-11T08:09:43.465Z,39.47
2022-09-11T08:12:13.916Z,36.85
2022-09-11T08:14:47.140Z,31.33
2022-09-11T08:17:20.191Z,32.55
2022-09-11T08:19:53.269Z,36.80
2022-09-11T08:22:25.772Z,37.17
2022-09-11T08:24:58.412Z,33.13
2022-09-11T08:27:28.727Z,30.75
2022-09-11T08:30:01.384Z,29.58
2022-09-11T08:32:36.921Z,26.08
2022-09-11T08:35:08.176Z,25.92
2022-09-11T08:37:38.255Z,25.17
2022-09-11T08:40:20.384Z,26.08
2022-09-11T08:42:51.952Z,25.10
2022-09-11T08:45:31.368Z,25.10
2022-09-11T08:48:02.459Z,23.85
2022-09-11T08:50:40.047Z,23.42
2022-09-11T08:53:18.914Z,24.17
2022-09-11T08:55:59.442Z,22.85
2022-09-11T08:58:44.603Z,22.45
2022-09-11T09:01:29.835Z,22.27
2022-09-11T09:04:26.203Z,20.10
2022-09-11T09:07:11.933Z,22.63
2022-09-11T09:09:58.435Z,20.58
2022-09-11T09:12:46.729Z,21.58
2022-09-11T09:15:42.963Z,19.98
2022-09-11T09:18:24.796Z,20.92
2022-09-11T09:21:06.758Z,21.73
2022-09-11T09:23:47.624Z,22.13
2022-09-11T09:26:22.331Z,20.98
2022-09-11T09:29:08.240Z,22.23
2022-09-11T09:31:42.410Z,21.65
2022-09-11T09:34:21.926Z,19.55
2022-09-11T09:37:08.517Z,19.70
2022-09-11T09:39:50.722Z,20.85
2022-09-11T09:42:52.886Z,18.30
2022-09-11T09:45:54.977Z,18.55
2022-09-11T09:48:25.300Z,16.98
2022-09-11T09:50:58.692Z,19.95
2022-09-11T09:53:41.576Z,16.40
2022-09-11T09:56:18.972Z,16.92
2022-09-11T09:59:01.611Z,18.27
2022-09-11T10:01:55.134Z,18.30
2022-09-11T10:04:27.876Z,15.77
2022-09-11T10:07:11.589Z,21.75
2022-09-11T10:09:51.591Z,23.20
2022-09-11T10:12:27.036Z,23.02
2022-09-11T10:15:04.033Z,24.55
2022-09-11T10:17:40.506Z,22.27
2022-09-11T10:20:26.935Z,23.10
2022-09-11T10:22:58.657Z,21.75
2022-09-11T10:25:32.869Z,23.13
2022-09-11T10:28:12.272Z,23.67
2022-09-11T10:30:50.356Z,25.77
2022-09-11T10:33:32.517Z,23.88
2022-09-11T10:36:06.885Z,23.80
2022-09-11T10:38:48.416Z,23.55
2022-09-11T10:41:22.841Z,21.65
2022-09-11T10:43:58.879Z,25.80
2022-09-11T10:46:41.356Z,23.05
2022-09-11T10:49:22.012Z,23.35
2022-09-11T10:52:05.700Z,21.23
2022-09-11T10:54:58.559Z,21.77
2022-09-11T10:57:35.752Z,20.70
2022-09-11T11:00:18.919Z,19.55
2022-09-11T11:02:53.176Z,20.23
2022-09-11T11:05:43.152Z,20.70
2022-09-11T11:08:33.788Z,20.70
2022-09-11T11:11:32.485Z,18.13
2022-09-11T11:14:37.895Z,18.05
2022-09-11T11:17:31.771Z,19.90
2022-09-11T11:20:24.593Z,20.25
2022-09-11T11:23:39.223Z,19.60
2022-09-11T11:26:51.220Z,17.85
2022-09-11T11:29:43.823Z,12.73
2022-09-11T11:32:34.111Z,13.20
2022-09-11T11:35:25.847Z,14.35
2022-09-11T11:38:06.066Z,17.73
2022-09-11T11:40:46.303Z,19.52
2022-09-11T11:43:22.281Z,18.33
2022-09-11T11:46:02.236Z,16.90
2022-09-11T11:48:48.903Z,13.48
2022-09-11T11:51:25.230Z,13.15
2022-09-11T11:54:07.100Z,10.35
2022-09-11T11:56:49.817Z,10.25
2022-09-11T11:59:33.736Z,12.20
2022-09-11T12:02:19.199Z,8.75
2022-09-11T12:04:59.478Z,8.50
2022-09-11T12:07:33.345Z,9.30
2022-09-11T12:10:05.838Z,9.27
2022-09-11T12:12:48.148Z,15.30
2022-09-11T12:15:24.093Z,14.13
2022-09-11T12:18:04.990Z,15.07
2022-09-11T12:20:46.377Z,17.55
2022-09-11T12:24:00.522Z,15.02
2022-09-11T12:26:34.394Z,15.63
2022-09-11T12:29:54.711Z,15.30
2022-09-11T12:32:46.407Z,13.27
2022-09-11T12:35:46.802Z,12.63
2022-09-11T12:38:28.552Z,11.60
2022-09-11T12:41:07.496Z,11.02
2022-09-11T12:43:51.297Z,9.10
2022-09-11T12:47:16.618Z,10.88
2022-09-11T12:50:03.334Z,11.35
2022-09-11T12:52:42.916Z,11.30
2022-09-11T12:55:34.684Z,12.20
2022-09-11T12:58:10.612Z,12.60
2022-09-11T13:00:46.056Z,10.88
2022-09-11T13:03:24.724Z,10.63
2022-09-11T13:06:12.707Z,9.88
2022-09-11T13:08:53.796Z,10.77
2022-09-11T13:11:44.944Z,10.38
2022-09-11T13:15:00.882Z,9.73
2022-09-11T13:17:33.459Z,10.15
2022-09-11T13:20:31.926Z,9.65
2022-09-11T13:23:21.188Z,10.23
2022-09-11T13:25:54.396Z,8.35
2022-09-11T13:28:27.296Z,8.65
2022-09-11T13:31:06.139Z,9.48
2022-09-11T13:33:36.781Z,9.48
2022-09-11T13:36:07.276Z,8.63
2022-09-11T13:38:42.344Z,8.48
2022-09-11T13:41:28.162Z,7.80
2022-09-11T13:44:01.978Z,7.70
2022-09-11T13:46:34.906Z,7.57
2022-09-11T13:49:35.292Z,8.85
2022-09-11T13:52:09.210Z,7.53
2022-09-11T13:54:51.977Z,9.35
2022-09-11T13:57:25.081Z,8.25
2022-09-11T13:59:57.024Z,5.47
2022-09-11T14:02:52.548Z,5.75
2022-09-11T14:05:31.470Z,5.72
2022-09-11T14:08:07.887Z,6.13
2022-09-11T14:10:49.534Z,7.82
2022-09-11T14:13:27.708Z,7.90
2022-09-11T14:16:02.146Z,8.25
2022-09-11T14:18:45.471Z,6.55
2022-09-11T14:21:18.679Z,6.82
2022-09-11T14:23:54.176Z,6.95
2022-09-11T14:26:42.198Z,6.22
2022-09-11T14:29:28.136Z,5.68
2022-09-11T14:32:31.982Z,6.40
2022-09-11T14:35:12.029Z,6.72
2022-09-11T14:37:56.935Z,6.60
2022-09-11T14:40:27.042Z,6.30
2022-09-11T14:42:57.216Z,8.70
2022-09-11T14:45:31.411Z,11.55
2022-09-11T14:48:02.594Z,12.43
2022-09-11T14:50:38.048Z,12.48
2022-09-11T14:53:08.307Z,11.88
2022-09-11T14:55:38.760Z,12.20
2022-09-11T14:58:15.444Z,14.70
2022-09-11T15:00:45.542Z,13.45
2022-09-11T15:03:18.179Z,13.23
2022-09-11T15:05:56.717Z,13.60
2022-09-11T15:08:28.326Z,12.70
2022-09-11T15:10:58.428Z,12.05
2022-09-11T15:13:28.526Z,9.48
2022-09-11T15:16:01.319Z,11.43
2022-09-11T15:18:31.410Z,9.77
2022-09-11T15:21:04.463Z,9.80
2022-09-11T15:23:37.194Z,9.02
2022-09-11T15:26:11.920Z,9.38
2022-09-11T15:28:45.084Z,8.18
2022-09-11T15:31:15.824Z,8.32
2022-09-11T15:33:47.712Z,7.22
2022-09-11T15:36:21.383Z,7.38
2022-09-11T15:38:55.264Z,7.03
2022-09-11T15:41:28.043Z,6.35
2022-09-11T15:43:58.115Z,7.40
2022-09-11T15:46:28.550Z,7.07
2022-09-11T15:49:02.297Z,7.22
2022-09-11T15:51:35.431Z,6.43
2022-09-11T15:54:05.744Z,6.38
2022-09-11T15:56:36.098Z,6.55
2022-09-11T15:59:06.616Z,6.25
2022-09-11T16:01:38.238Z,6.55
2022-09-11T16:04:11.884Z,6.57
2022-09-11T16:06:47.688Z,6.70
2022-09-11T16:09:21.666Z,6.38
2022-09-11T16:12:01.772Z,5.25
2022-09-11T16:14:38.494Z,6.03
2022-09-11T16:17:10.712Z,7.80
2022-09-11T16:19:43.636Z,6.57
2022-09-11T16:22:16.607Z,7.82
2022-09-11T16:24:46.801Z,6.82
2022-09-11T16:27:19.911Z,6.28
2022-09-11T16:32:40.583Z,6.53
2022-09-11T16:35:19.081Z,6.10
2022-09-11T16:37:51.898Z,6.15
2022-09-11T16:40:24.777Z,6.20
2022-09-11T16:42:55.732Z,6.20
2022-09-11T16:45:28.830Z,7.50
2022-09-11T16:48:04.961Z,5.60
2022-09-11T16:50:35.203Z,5.68
2022-09-11T16:53:07.842Z,5.85
2022-09-11T16:55:40.560Z,5.75
2022-09-11T16:58:16.335Z,6.15
2022-09-11T17:00:46.651Z,6.65
2022-09-11T17:03:22.816Z,6.13
2022-09-11T17:05:59.017Z,5.95
2022-09-11T17:08:32.715Z,6.47
2022-09-11T17:11:05.917Z,5.68
2022-09-11T17:13:35.951Z,6.03
2022-09-11T17:16:16.146Z,6.63
2022-09-11T17:18:50.069Z,6.65
2022-09-11T17:21:20.377Z,7.32
2022-09-11T17:23:59.380Z,6.78
2022-09-11T17:26:29.491Z,6.00
2022-09-11T17:29:03.037Z,6.30
2022-09-11T17:31:33.779Z,6.70
2022-09-11T17:34:03.878Z,7.07
2022-09-11T17:36:33.957Z,6.75
2022-09-11T17:39:12.654Z,6.78
2022-09-11T17:41:44.383Z,6.00
2022-09-11T17:44:24.794Z,6.35
2022-09-11T17:46:56.783Z,6.47
2022-09-11T17:49:27.183Z,6.28
2022-09-11T17:51:58.101Z,7.00
2022-09-11T17:54:31.009Z,6.43
2022-09-11T17:57:01.088Z,7.03
2022-09-11T17:59:33.712Z,7.07
2022-09-11T18:02:06.376Z,7.13
2022-09-11T18:04:43.851Z,7.95
2022-09-11T18:07:14.193Z,7.00
2022-09-11T18:09:54.109Z,7.93
2022-09-11T18:12:26.723Z,7.15
2022-09-11T18:15:09.064Z,6.97
2022-09-11T18:17:40.191Z,8.88
2022-09-11T18:20:14.916Z,6.65
2022-09-11T18:22:54.213Z,7.03
2022-09-11T18:25:26.895Z,6.82
2022-09-11T18:28:03.677Z,6.95
2022-09-11T18:30:34.352Z,7.43
2022-09-11T18:33:10.690Z,6.50
2022-09-11T18:35:41.769Z,7.10
2022-09-11T18:38:14.684Z,7.07
2022-09-11T18:40:47.468Z,7.57
2022-09-11T18:43:18.929Z,8.02
2022-09-11T18:45:49.079Z,7.95
2022-09-11T18:48:19.434Z,8.07
2022-09-11T18:50:49.904Z,8.10
2022-09-11T18:53:20.204Z,7.47
2022-09-11T18:56:04.553Z,7.88
2022-09-11T18:58:40.021Z,7.20
2022-09-11T19:01:11.761Z,8.45
2022-09-11T19:03:46.107Z,8.38
2022-09-11T19:06:19.874Z,8.07
2022-09-11T19:08:53.929Z,8.70
2022-09-11T19:11:29.650Z,9.43
2022-09-11T19:14:06.899Z,8.80
2022-09-11T19:16:40.899Z,9.35
2022-09-11T19:19:14.264Z,8.13
2022-09-11T19:21:44.536Z,9.32
2022-09-11T19:24:23.196Z,9.60
2022-09-11T19:27:00.472Z,8.50
2022-09-11T19:29:33.898Z,8.10
2022-09-11T19:32:08.326Z,9.25
2022-09-11T19:34:46.440Z,8.77
2022-09-11T19:37:20.982Z,8.77
2022-09-11T19:39:52.781Z,10.55
2022-09-11T19:42:26.086Z,9.98
2022-09-11T19:44:56.540Z,10.98
2022-09-11T19:47:28.207Z,10.13
2022-09-11T19:50:00.316Z,11.35
2022-09-11T19:52:33.049Z,10.32
2022-09-11T19:55:03.974Z,10.98
2022-09-11T19:57:36.613Z,9.63
2022-09-11T20:00:08.511Z,10.82
2022-09-11T20:02:38.831Z,10.07
2022-09-11T20:05:10.533Z,10.23
2022-09-11T20:07:40.638Z,9.07
2022-09-11T20:10:12.743Z,9.93
2022-09-11T20:12:45.374Z,9.65
2022-09-11T20:15:18.161Z,10.43
2022-09-11T20:17:48.230Z,10.55
2022-09-11T20:20:21.026Z,11.00
2022-09-11T20:22:56.360Z,11.45
2022-09-11T20:25:26.417Z,11.65
2022-09-11T20:28:00.447Z,11.70
2022-09-11T20:30:33.391Z,11.48
2022-09-11T20:33:03.648Z,10.90
2022-09-11T20:35:33.770Z,11.60
2022-09-11T20:38:06.255Z,11.68
2022-09-11T20:40:36.314Z,13.57
2022-09-11T20:43:09.209Z,12.45
2022-09-11T20:45:39.315Z,12.77
2022-09-11T20:48:09.355Z,13.10
2022-09-11T20:50:39.472Z,12.50
2022-09-11T20:53:09.543Z,12.40
2022-09-11T20:55:42.937Z,12.60
2022-09-11T20:58:20.887Z,12.10
2022-09-11T21:00:58.214Z,13.13
2022-09-11T21:03:34.417Z,13.75
2022-09-11T21:06:09.611Z,15.15
2022-09-11T21:08:39.991Z,14.20
2022-09-11T21:11:11.140Z,16.92
2022-09-11T21:13:46.089Z,14.48
2022-09-11T21:16:19.858Z,14.70
2022-09-11T21:18:55.075Z,14.68
2022-09-11T21:21:30.408Z,14.10
2022-09-11T21:24:04.045Z,13.57
2022-09-11T21:26:35.790Z,13.75
2022-09-11T21:29:10.952Z,13.88
2022-09-11T21:31:41.228Z,15.55
2022-09-11T21:34:20.707Z,14.55
2022-09-11T21:36:50.804Z,14.35
2022-09-11T21:39:20.861Z,14.63
2022-09-11T21:41:56.839Z,14.80
2022-09-11T21:44:35.373Z,14.27
2022-09-11T21:47:05.574Z,13.15
2022-09-11T21:49:35.690Z,12.82
2022-09-11T21:52:08.924Z,12.65
2022-09-11T21:54:39.201Z,13.40
2022-09-11T21:57:09.412Z,13.70
2022-09-11T21:59:44.187Z,14.45
2022-09-11T22:02:15.186Z,14.95
2022-09-11T22:04:45.752Z,14.93
2022-09-11T22:07:17.524Z,15.23
2022-09-11T22:09:48.454Z,15.80
2022-09-11T22:12:19.268Z,14.70
2022-09-11T22:14:53.010Z,14.32
2022-09-11T22:17:23.365Z,14.80
2022-09-11T22:20:01.074Z,15.05
2022-09-11T22:22:31.147Z,15.23
2022-09-11T22:25:03.760Z,15.75
2022-09-11T22:27:37.682Z,15.50
2022-09-11T22:30:15.712Z,15.13
2022-09-11T22:32:45.814Z,16.40
2022-09-11T22:35:15.977Z,16.45
2022-09-11T22:37:46.070Z,15.40
2022-09-11T22:40:18.393Z,15.18
2022-09-11T22:42:48.518Z,14.93
2022-09-11T22:45:24.351Z,15.43
2022-09-11T22:47:54.581Z,16.30
2022-09-11T22:50:24.708Z,15.95
2022-09-11T22:52:58.063Z,17.10
2022-09-11T22:55:28.144Z,16.05
2022-09-11T22:57:58.224Z,17.73
2022-09-11T23:00:33.599Z,17.00
2022-09-11T23:03:08.973Z,17.67
2022-09-11T23:05:57.407Z,17.10
2022-09-11T23:08:39.410Z,16.85
2022-09-11T23:11:11.525Z,16.90
2022-09-11T23:13:41.867Z,16.55
2022-09-11T23:16:21.630Z,16.50
2022-09-11T23:18:56.124Z,18.83
2022-09-11T23:21:26.929Z,17.25
2022-09-11T23:23:59.969Z,16.92
2022-09-11T23:26:32.760Z,18.00
2022-09-11T23:29:03.163Z,16.80
2022-09-11T23:31:37.500Z,17.95
2022-09-11T23:34:13.457Z,18.20
2022-09-11T23:36:43.717Z,18.65
2022-09-11T23:39:13.832Z,20.02
2022-09-11T23:41:43.956Z,20.27
2022-09-11T23:44:24.635Z,19.38
2022-09-11T23:47:00.598Z,19.17
2022-09-11T23:49:35.496Z,18.75
2022-09-11T23:52:07.481Z,19.30
2022-09-11T23:54:37.657Z,18.42
2022-09-11T23:57:08.526Z,18.20
2022-09-11T23:59:38.574Z,17.75
